sensor_id;sensor_type;location;lat;lon;timestamp;P1;durP1;ratioP1;P2;durP2;ratioP2
16430;SDS011;8325;49.284;7.238;2023-04-24T04:01:55;7.60;;;4.38;;
16430;SDS011;8325;49.284;7.238;2023-04-24T04:06:06;24.52;;;12.88;;
16430;SDS011;8325;49.284;7.238;2023-04-24T04:10:18;12.82;;;7.75;;
16430;SDS011;8325;49.284;7.238;2023-04-24T04:14:30;10.07;;;7.45;;
16430;SDS011;8325;49.284;7.238;2023-04-24T04:18:41;7.13;;;5.53;;
16430;SDS011;8325;49.284;7.238;2023-04-24T04:22:54;7.45;;;5.00;;
16430;SDS011;8325;49.284;7.238;2023-04-24T04:27:16;5.15;;;4.38;;
16430;SDS011;8325;49.284;7.238;2023-04-24T04:31:37;6.47;;;3.92;;
16430;SDS011;8325;49.284;7.238;2023-04-24T04:35:53;7.15;;;3.60;;
16430;SDS011;8325;49.284;7.238;2023-04-24T04:40:09;5.70;;;4.57;;
16430;SDS011;8325;49.284;7.238;2023-04-24T04:44:32;5.47;;;4.05;;
16430;SDS011;8325;49.284;7.238;2023-04-24T04:48:44;4.65;;;3.65;;
16430;SDS011;8325;49.284;7.238;2023-04-24T04:52:57;4.30;;;3.65;;
16430;SDS011;8325;49.284;7.238;2023-04-24T04:57:15;4.95;;;4.13;;
16430;SDS011;8325;49.284;7.238;2023-04-24T05:01:28;4.40;;;3.97;;
16430;SDS011;8325;49.284;7.238;2023-04-24T05:05:40;5.45;;;3.80;;
16430;SDS011;8325;49.284;7.238;2023-04-24T05:09:55;7.05;;;4.25;;
16430;SDS011;8325;49.284;7.238;2023-04-24T05:14:07;8.35;;;4.50;;
16430;SDS011;8325;49.284;7.238;2023-04-24T05:18:21;5.43;;;3.63;;
16430;SDS011;8325;49.284;7.238;2023-04-24T05:22:33;7.35;;;4.70;;
16430;SDS011;8325;49.284;7.238;2023-04-24T05:26:46;7.15;;;4.22;;
16430;SDS011;8325;49.284;7.238;2023-04-24T05:31:01;4.75;;;3.65;;
16430;SDS011;8325;49.284;7.238;2023-04-24T05:35:13;6.30;;;3.85;;
16430;SDS011;8325;49.284;7.238;2023-04-24T05:39:25;4.55;;;3.05;;
16430;SDS011;8325;49.284;7.238;2023-04-24T05:43:37;3.83;;;2.97;;
16430;SDS011;8325;49.284;7.238;2023-04-24T05:47:50;5.28;;;3.45;;
16430;SDS011;8325;49.284;7.238;2023-04-24T05:52:03;4.30;;;2.90;;
16430;SDS011;8325;49.284;7.238;2023-04-24T05:56:17;5.68;;;3.05;;
16430;SDS011;8325;49.284;7.238;2023-04-24T06:00:29;3.75;;;2.88;;
16430;SDS011;8325;49.284;7.238;2023-04-24T06:04:48;5.05;;;2.90;;
16430;SDS011;8325;49.284;7.238;2023-04-24T06:09:01;3.13;;;2.50;;
16430;SDS011;8325;49.284;7.238;2023-04-24T06:13:15;3.85;;;2.90;;
16430;SDS011;8325;49.284;7.238;2023-04-24T06:17:39;3.25;;;2.72;;
16430;SDS011;8325;49.284;7.238;2023-04-24T06:21:51;4.13;;;2.92;;
16430;SDS011;8325;49.284;7.238;2023-04-24T06:26:02;3.35;;;2.65;;
16430;SDS011;8325;49.284;7.238;2023-04-24T06:30:15;3.22;;;2.30;;
16430;SDS011;8325;49.284;7.238;2023-04-24T06:34:27;2.78;;;2.53;;
16430;SDS011;8325;49.284;7.238;2023-04-24T06:38:38;3.08;;;2.60;;
16430;SDS011;8325;49.284;7.238;2023-04-24T06:42:50;6.53;;;4.40;;
16430;SDS011;8325;49.284;7.238;2023-04-24T06:47:02;3.17;;;2.60;;
16430;SDS011;8325;49.284;7.238;2023-04-24T06:51:14;3.75;;;3.03;;
16430;SDS011;8325;49.284;7.238;2023-04-24T06:55:25;3.85;;;2.85;;
16430;SDS011;8325;49.284;7.238;2023-04-24T06:59:37;3.17;;;2.80;;
16430;SDS011;8325;49.284;7.238;2023-04-24T07:03:49;2.55;;;2.35;;
16430;SDS011;8325;49.284;7.238;2023-04-24T07:08:00;3.70;;;2.60;;
16430;SDS011;8325;49.284;7.238;2023-04-24T07:12:13;6.10;;;2.90;;
16430;SDS011;8325;49.284;7.238;2023-04-24T07:16:24;2.83;;;2.55;;
16430;SDS011;8325;49.284;7.238;2023-04-24T07:20:36;3.80;;;2.75;;
16430;SDS011;8325;49.284;7.238;2023-04-24T07:24:48;3.75;;;2.42;;
16430;SDS011;8325;49.284;7.238;2023-04-24T07:28:59;3.25;;;2.40;;
16430;SDS011;8325;49.284;7.238;2023-04-24T07:33:11;3.10;;;2.70;;
16430;SDS011;8325;49.284;7.238;2023-04-24T07:37:24;3.15;;;2.40;;
16430;SDS011;8325;49.284;7.238;2023-04-24T07:41:36;4.45;;;2.58;;
16430;SDS011;8325;49.284;7.238;2023-04-24T07:45:47;4.35;;;2.72;;
16430;SDS011;8325;49.284;7.238;2023-04-24T07:49:59;4.28;;;2.85;;
16430;SDS011;8325;49.284;7.238;2023-04-24T07:54:11;3.97;;;2.30;;
16430;SDS011;8325;49.284;7.238;2023-04-24T07:58:23;4.00;;;2.60;;
16430;SDS011;8325;49.284;7.238;2023-04-24T08:02:34;3.35;;;2.47;;
16430;SDS011;8325;49.284;7.238;2023-04-24T08:06:47;4.28;;;3.10;;
16430;SDS011;8325;49.284;7.238;2023-04-24T08:10:59;5.65;;;3.10;;
16430;SDS011;8325;49.284;7.238;2023-04-24T08:15:11;4.65;;;2.90;;
16430;SDS011;8325;49.284;7.238;2023-04-24T08:19:22;4.50;;;3.05;;
16430;SDS011;8325;49.284;7.238;2023-04-24T08:23:34;5.07;;;3.33;;
16430;SDS011;8325;49.284;7.238;2023-04-24T08:27:45;4.47;;;3.53;;
16430;SDS011;8325;49.284;7.238;2023-04-24T08:31:57;4.68;;;3.60;;
16430;SDS011;8325;49.284;7.238;2023-04-24T08:36:09;5.80;;;4.03;;
16430;SDS011;8325;49.284;7.238;2023-04-24T08:40:22;4.78;;;3.78;;
16430;SDS011;8325;49.284;7.238;2023-04-24T08:44:40;7.03;;;4.40;;
16430;SDS011;8325;49.284;7.238;2023-04-24T08:48:52;5.72;;;3.78;;
16430;SDS011;8325;49.284;7.238;2023-04-24T08:53:03;4.75;;;4.10;;
16430;SDS011;8325;49.284;7.238;2023-04-24T08:57:15;7.45;;;4.35;;
16430;SDS011;8325;49.284;7.238;2023-04-24T09:01:27;4.68;;;3.78;;
16430;SDS011;8325;49.284;7.238;2023-04-24T09:05:40;5.63;;;4.15;;
16430;SDS011;8325;49.284;7.238;2023-04-24T09:09:56;6.70;;;4.38;;
16430;SDS011;8325;49.284;7.238;2023-04-24T09:14:09;7.22;;;4.85;;
16430;SDS011;8325;49.284;7.238;2023-04-24T09:18:20;7.00;;;4.60;;
16430;SDS011;8325;49.284;7.238;2023-04-24T09:22:32;6.65;;;5.05;;
16430;SDS011;8325;49.284;7.238;2023-04-24T09:26:44;5.80;;;4.45;;
16430;SDS011;8325;49.284;7.238;2023-04-24T09:31:12;6.45;;;4.20;;
16430;SDS011;8325;49.284;7.238;2023-04-24T09:35:26;6.28;;;4.57;;
16430;SDS011;8325;49.284;7.238;2023-04-24T09:39:37;5.88;;;4.10;;
16430;SDS011;8325;49.284;7.238;2023-04-24T09:43:49;6.50;;;4.53;;
16430;SDS011;8325;49.284;7.238;2023-04-24T09:48:01;6.10;;;4.63;;
16430;SDS011;8325;49.284;7.238;2023-04-24T09:52:12;6.90;;;4.78;;
16430;SDS011;8325;49.284;7.238;2023-04-24T09:56:26;7.03;;;4.70;;
16430;SDS011;8325;49.284;7.238;2023-04-24T10:00:38;6.13;;;4.35;;
16430;SDS011;8325;49.284;7.238;2023-04-24T10:04:56;7.88;;;5.18;;
16430;SDS011;8325;49.284;7.238;2023-04-24T10:09:11;5.85;;;4.53;;
16430;SDS011;8325;49.284;7.238;2023-04-24T10:13:23;6.13;;;4.47;;
16430;SDS011;8325;49.284;7.238;2023-04-24T10:17:35;5.25;;;4.28;;
16430;SDS011;8325;49.284;7.238;2023-04-24T10:21:47;8.40;;;4.35;;
16430;SDS011;8325;49.284;7.238;2023-04-24T10:25:59;5.88;;;4.50;;
16430;SDS011;8325;49.284;7.238;2023-04-24T10:30:11;8.02;;;4.53;;
16430;SDS011;8325;49.284;7.238;2023-04-24T10:34:24;7.28;;;4.50;;
16430;SDS011;8325;49.284;7.238;2023-04-24T10:38:36;7.35;;;4.25;;
16430;SDS011;8325;49.284;7.238;2023-04-24T10:42:49;6.30;;;4.40;;
16430;SDS011;8325;49.284;7.238;2023-04-24T10:47:07;5.47;;;4.10;;
16430;SDS011;8325;49.284;7.238;2023-04-24T10:51:24;4.40;;;3.53;;
16430;SDS011;8325;49.284;7.238;2023-04-24T11:00:20;6.28;;;4.18;;
16430;SDS011;8325;49.284;7.238;2023-04-24T11:04:32;5.05;;;3.88;;
16430;SDS011;8325;49.284;7.238;2023-04-24T11:08:45;8.32;;;4.07;;
16430;SDS011;8325;49.284;7.238;2023-04-24T11:12:56;5.65;;;3.70;;
16430;SDS011;8325;49.284;7.238;2023-04-24T11:17:08;5.85;;;3.90;;
16430;SDS011;8325;49.284;7.238;2023-04-24T11:21:20;5.82;;;4.28;;
16430;SDS011;8325;49.284;7.238;2023-04-24T11:25:33;5.50;;;4.28;;
16430;SDS011;8325;49.284;7.238;2023-04-24T11:29:47;4.47;;;4.03;;
16430;SDS011;8325;49.284;7.238;2023-04-24T11:34:09;5.93;;;3.88;;
16430;SDS011;8325;49.284;7.238;2023-04-24T11:38:23;7.13;;;4.28;;
16430;SDS011;8325;49.284;7.238;2023-04-24T11:42:35;7.00;;;4.50;;
16430;SDS011;8325;49.284;7.238;2023-04-24T11:46:51;5.03;;;3.67;;
16430;SDS011;8325;49.284;7.238;2023-04-24T11:51:03;6.65;;;4.80;;
16430;SDS011;8325;49.284;7.238;2023-04-24T11:59:26;6.75;;;4.78;;
16430;SDS011;8325;49.284;7.238;2023-04-24T12:03:37;8.80;;;4.32;;
16430;SDS011;8325;49.284;7.238;2023-04-24T12:07:49;6.97;;;4.45;;
16430;SDS011;8325;49.284;7.238;2023-04-24T12:12:01;8.65;;;4.95;;
16430;SDS011;8325;49.284;7.238;2023-04-24T12:16:12;5.28;;;4.25;;
16430;SDS011;8325;49.284;7.238;2023-04-24T12:20:28;5.72;;;4.22;;
16430;SDS011;8325;49.284;7.238;2023-04-24T12:25:04;7.28;;;5.05;;
16430;SDS011;8325;49.284;7.238;2023-04-24T12:29:20;8.00;;;5.07;;
16430;SDS011;8325;49.284;7.238;2023-04-24T12:33:33;7.90;;;5.00;;
16430;SDS011;8325;49.284;7.238;2023-04-24T12:37:45;6.50;;;4.65;;
16430;SDS011;8325;49.284;7.238;2023-04-24T12:41:58;5.93;;;4.78;;
16430;SDS011;8325;49.284;7.238;2023-04-24T12:46:10;6.43;;;4.50;;
16430;SDS011;8325;49.284;7.238;2023-04-24T12:50:22;6.00;;;4.57;;
16430;SDS011;8325;49.284;7.238;2023-04-24T12:54:34;8.20;;;4.47;;
16430;SDS011;8325;49.284;7.238;2023-04-24T12:58:45;8.82;;;3.95;;
16430;SDS011;8325;49.284;7.238;2023-04-24T13:02:57;3.65;;;3.28;;
16430;SDS011;8325;49.284;7.238;2023-04-24T13:07:09;6.43;;;3.95;;
16430;SDS011;8325;49.284;7.238;2023-04-24T13:11:20;5.97;;;4.15;;
16430;SDS011;8325;49.284;7.238;2023-04-24T13:15:33;6.93;;;4.20;;
16430;SDS011;8325;49.284;7.238;2023-04-24T13:19:44;6.32;;;4.95;;
16430;SDS011;8325;49.284;7.238;2023-04-24T13:23:56;6.25;;;4.25;;
16430;SDS011;8325;49.284;7.238;2023-04-24T13:28:08;5.45;;;4.35;;
16430;SDS011;8325;49.284;7.238;2023-04-24T13:32:19;4.53;;;4.03;;
16430;SDS011;8325;49.284;7.238;2023-04-24T13:36:31;9.77;;;6.53;;
16430;SDS011;8325;49.284;7.238;2023-04-24T13:40:43;5.53;;;4.35;;
16430;SDS011;8325;49.284;7.238;2023-04-24T13:44:55;8.43;;;6.28;;
16430;SDS011;8325;49.284;7.238;2023-04-24T13:49:07;4.22;;;3.78;;
16430;SDS011;8325;49.284;7.238;2023-04-24T13:53:19;5.22;;;4.28;;
16430;SDS011;8325;49.284;7.238;2023-04-24T13:57:30;5.75;;;3.88;;
16430;SDS011;8325;49.284;7.238;2023-04-24T14:01:42;4.45;;;3.28;;
16430;SDS011;8325;49.284;7.238;2023-04-24T14:05:56;4.95;;;3.30;;
16430;SDS011;8325;49.284;7.238;2023-04-24T14:10:07;4.00;;;3.60;;
16430;SDS011;8325;49.284;7.238;2023-04-24T14:14:19;6.75;;;3.90;;
16430;SDS011;8325;49.284;7.238;2023-04-24T14:18:30;9.45;;;6.15;;
16430;SDS011;8325;49.284;7.238;2023-04-24T14:22:42;6.10;;;4.18;;
16430;SDS011;8325;49.284;7.238;2023-04-24T14:26:53;5.82;;;4.00;;
16430;SDS011;8325;49.284;7.238;2023-04-24T14:31:05;5.72;;;4.07;;
16430;SDS011;8325;49.284;7.238;2023-04-24T14:35:17;7.07;;;4.20;;
16430;SDS011;8325;49.284;7.238;2023-04-24T14:39:28;4.78;;;3.78;;
16430;SDS011;8325;49.284;7.238;2023-04-24T14:43:40;6.90;;;3.88;;
16430;SDS011;8325;49.284;7.238;2023-04-24T14:47:51;4.55;;;3.90;;
16430;SDS011;8325;49.284;7.238;2023-04-24T14:52:03;5.30;;;3.53;;
16430;SDS011;8325;49.284;7.238;2023-04-24T14:56:15;6.80;;;4.22;;
16430;SDS011;8325;49.284;7.238;2023-04-24T15:00:26;5.57;;;3.80;;
16430;SDS011;8325;49.284;7.238;2023-04-24T15:04:38;4.93;;;3.90;;
16430;SDS011;8325;49.284;7.238;2023-04-24T15:08:50;5.57;;;4.13;;
16430;SDS011;8325;49.284;7.238;2023-04-24T15:13:01;5.05;;;4.03;;
16430;SDS011;8325;49.284;7.238;2023-04-24T15:17:13;5.65;;;4.70;;
16430;SDS011;8325;49.284;7.238;2023-04-24T15:21:24;5.40;;;4.00;;
16430;SDS011;8325;49.284;7.238;2023-04-24T15:25:37;4.00;;;3.38;;
16430;SDS011;8325;49.284;7.238;2023-04-24T15:29:49;5.30;;;2.92;;
16430;SDS011;8325;49.284;7.238;2023-04-24T15:34:00;4.53;;;2.70;;
16430;SDS011;8325;49.284;7.238;2023-04-24T15:38:12;4.50;;;2.92;;
16430;SDS011;8325;49.284;7.238;2023-04-24T15:42:24;3.10;;;2.63;;
16430;SDS011;8325;49.284;7.238;2023-04-24T15:46:36;3.22;;;2.70;;
16430;SDS011;8325;49.284;7.238;2023-04-24T15:50:48;3.35;;;2.60;;
16430;SDS011;8325;49.284;7.238;2023-04-24T15:54:59;3.58;;;2.55;;
16430;SDS011;8325;49.284;7.238;2023-04-24T15:59:11;5.25;;;3.55;;
16430;SDS011;8325;49.284;7.238;2023-04-24T16:03:22;4.93;;;3.33;;
16430;SDS011;8325;49.284;7.238;2023-04-24T16:07:34;4.97;;;3.10;;
16430;SDS011;8325;49.284;7.238;2023-04-24T16:11:47;5.40;;;3.70;;
16430;SDS011;8325;49.284;7.238;2023-04-24T16:15:59;4.35;;;3.47;;
16430;SDS011;8325;49.284;7.238;2023-04-24T16:20:11;4.75;;;3.30;;
16430;SDS011;8325;49.284;7.238;2023-04-24T16:24:23;4.65;;;3.28;;
16430;SDS011;8325;49.284;7.238;2023-04-24T16:28:35;4.80;;;3.30;;
16430;SDS011;8325;49.284;7.238;2023-04-24T16:32:46;4.57;;;3.28;;
16430;SDS011;8325;49.284;7.238;2023-04-24T16:36:58;3.65;;;3.05;;
16430;SDS011;8325;49.284;7.238;2023-04-24T16:41:10;4.47;;;4.07;;
16430;SDS011;8325;49.284;7.238;2023-04-24T16:45:21;3.30;;;2.70;;
16430;SDS011;8325;49.284;7.238;2023-04-24T16:49:33;6.68;;;3.30;;
16430;SDS011;8325;49.284;7.238;2023-04-24T16:53:45;3.80;;;3.30;;
16430;SDS011;8325;49.284;7.238;2023-04-24T16:57:57;6.95;;;5.75;;
16430;SDS011;8325;49.284;7.238;2023-04-24T17:02:08;5.93;;;5.32;;
16430;SDS011;8325;49.284;7.238;2023-04-24T17:06:20;3.88;;;3.00;;
16430;SDS011;8325;49.284;7.238;2023-04-24T17:10:31;3.75;;;2.72;;
16430;SDS011;8325;49.284;7.238;2023-04-24T17:14:43;4.13;;;2.80;;
16430;SDS011;8325;49.284;7.238;2023-04-24T17:18:55;4.28;;;3.17;;
16430;SDS011;8325;49.284;7.238;2023-04-24T17:23:07;4.57;;;3.50;;
16430;SDS011;8325;49.284;7.238;2023-04-24T17:27:21;4.00;;;3.13;;
16430;SDS011;8325;49.284;7.238;2023-04-24T17:31:35;6.07;;;3.65;;
16430;SDS011;8325;49.284;7.238;2023-04-24T17:35:46;5.28;;;3.85;;
16430;SDS011;8325;49.284;7.238;2023-04-24T17:39:59;6.47;;;4.18;;
16430;SDS011;8325;49.284;7.238;2023-04-24T17:44:10;4.65;;;3.95;;
16430;SDS011;8325;49.284;7.238;2023-04-24T17:48:22;6.07;;;3.45;;
16430;SDS011;8325;49.284;7.238;2023-04-24T17:52:33;4.80;;;3.38;;
16430;SDS011;8325;49.284;7.238;2023-04-24T17:56:45;6.78;;;3.63;;
16430;SDS011;8325;49.284;7.238;2023-04-24T18:00:57;3.85;;;3.40;;
16430;SDS011;8325;49.284;7.238;2023-04-24T18:05:08;5.25;;;3.40;;
16430;SDS011;8325;49.284;7.238;2023-04-24T18:09:20;4.60;;;3.17;;
16430;SDS011;8325;49.284;7.238;2023-04-24T18:13:31;5.28;;;3.78;;
16430;SDS011;8325;49.284;7.238;2023-04-24T18:17:43;5.00;;;3.65;;
16430;SDS011;8325;49.284;7.238;2023-04-24T18:21:55;4.80;;;3.28;;
16430;SDS011;8325;49.284;7.238;2023-04-24T18:26:08;4.32;;;3.58;;
16430;SDS011;8325;49.284;7.238;2023-04-24T18:30:19;4.82;;;3.38;;
16430;SDS011;8325;49.284;7.238;2023-04-24T18:34:32;3.50;;;3.20;;
16430;SDS011;8325;49.284;7.238;2023-04-24T18:38:44;5.60;;;3.65;;
16430;SDS011;8325;49.284;7.238;2023-04-24T18:42:55;5.85;;;3.88;;
16430;SDS011;8325;49.284;7.238;2023-04-24T18:47:07;7.47;;;4.00;;
16430;SDS011;8325;49.284;7.238;2023-04-24T18:51:20;4.88;;;3.80;;
16430;SDS011;8325;49.284;7.238;2023-04-24T18:55:32;6.35;;;3.80;;
16430;SDS011;8325;49.284;7.238;2023-04-24T18:59:45;4.30;;;3.05;;
16430;SDS011;8325;49.284;7.238;2023-04-24T19:03:56;5.25;;;3.50;;
16430;SDS011;8325;49.284;7.238;2023-04-24T19:08:09;4.00;;;2.83;;
16430;SDS011;8325;49.284;7.238;2023-04-24T19:12:20;4.00;;;3.05;;
16430;SDS011;8325;49.284;7.238;2023-04-24T19:16:33;4.45;;;3.10;;
16430;SDS011;8325;49.284;7.238;2023-04-24T19:20:45;4.05;;;3.20;;
16430;SDS011;8325;49.284;7.238;2023-04-24T19:24:56;4.45;;;3.92;;
16430;SDS011;8325;49.284;7.238;2023-04-24T19:29:08;4.75;;;3.42;;
16430;SDS011;8325;49.284;7.238;2023-04-24T19:33:20;4.80;;;3.92;;
16430;SDS011;8325;49.284;7.238;2023-04-24T19:37:31;6.57;;;4.93;;
16430;SDS011;8325;49.284;7.238;2023-04-24T19:41:44;7.80;;;3.92;;
16430;SDS011;8325;49.284;7.238;2023-04-24T19:45:56;5.22;;;3.70;;
16430;SDS011;8325;49.284;7.238;2023-04-24T19:50:08;4.85;;;3.83;;
16430;SDS011;8325;49.284;7.238;2023-04-24T19:54:20;4.25;;;3.53;;
16430;SDS011;8325;49.284;7.238;2023-04-24T19:58:31;6.10;;;4.30;;
16430;SDS011;8325;49.284;7.238;2023-04-24T20:02:43;4.80;;;3.70;;
16430;SDS011;8325;49.284;7.238;2023-04-24T20:06:55;5.45;;;3.50;;
16430;SDS011;8325;49.284;7.238;2023-04-24T20:11:06;3.83;;;3.05;;
16430;SDS011;8325;49.284;7.238;2023-04-24T20:15:18;7.25;;;5.50;;
16430;SDS011;8325;49.284;7.238;2023-04-24T20:19:30;5.15;;;3.78;;
16430;SDS011;8325;49.284;7.238;2023-04-24T20:23:42;4.03;;;3.25;;
16430;SDS011;8325;49.284;7.238;2023-04-24T20:27:53;3.92;;;2.70;;
16430;SDS011;8325;49.284;7.238;2023-04-24T20:32:05;3.85;;;2.97;;
16430;SDS011;8325;49.284;7.238;2023-04-24T20:36:17;3.65;;;2.97;;
16430;SDS011;8325;49.284;7.238;2023-04-24T20:40:28;3.35;;;2.85;;
16430;SDS011;8325;49.284;7.238;2023-04-24T20:44:42;3.40;;;2.83;;
16430;SDS011;8325;49.284;7.238;2023-04-24T20:48:55;5.45;;;3.00;;
16430;SDS011;8325;49.284;7.238;2023-04-24T20:53:07;4.32;;;2.97;;
16430;SDS011;8325;49.284;7.238;2023-04-24T20:57:19;3.35;;;2.63;;
16430;SDS011;8325;49.284;7.238;2023-04-24T21:01:31;3.83;;;2.72;;
16430;SDS011;8325;49.284;7.238;2023-04-24T21:05:42;5.03;;;3.30;;
16430;SDS011;8325;49.284;7.238;2023-04-24T21:09:54;4.85;;;3.13;;
16430;SDS011;8325;49.284;7.238;2023-04-24T21:14:05;5.47;;;3.95;;
16430;SDS011;8325;49.284;7.238;2023-04-24T21:18:17;6.18;;;4.00;;
16430;SDS011;8325;49.284;7.238;2023-04-24T21:22:29;5.00;;;4.22;;
16430;SDS011;8325;49.284;7.238;2023-04-24T21:26:40;6.60;;;4.60;;
